Airfield :
LOGIN :

Register | Disclaimer

   EN    FR    IT 

 










Legend :    VFR   Marginal VFR   IFR   Intensive IFR   Very Intensive IFR
Visi :
Ceiling :
>= 8 km
>= 3000ft
5 to 8 km
1000 to 3000 ft
1500m to 5 km
500 to 1000 ft
800 to 1500m
200 to 500 ft
< 800m
< 200 ft
Symbols :   Thunderstorms  Fog  Heavy snow  Heavy precipitations  Wind > 20 kt
SIGMETs :     Misc.  Thunderstorms  Icing  Turbulence  Mountain Waves  Volcanic Ashes







- Airport Elevation : 200 ft


EBBL - Klein Brogel AB

CURRENT METAR :
  • 231755Z 04007KT 9999 FEW130 12/04 Q1017 BLU

EXPIRED METARs :
  • 231725Z 04011KT 9999 FEW140 SCT200 13/03 Q1016 BLU
  • 231655Z 04011KT 9999 FEW150 SCT200 14/03 Q1016 BLU
  • 231625Z 06009KT 9999 FEW140 SCT200 14/02 Q1016 BLU
  • 231555Z 06010KT 9999 FEW140 SCT200 15/03 Q1016 BLU BLU
  • 231525Z 06011KT 9999 FEW140 SCT200 15/03 Q1016 BLU BLU
  • 231455Z 07011KT 9999 FEW140 SCT200 15/03 Q1015 BLU BLU

TAF TAF EBBL
Valid from the 23 at 13:00 until the 23 at 22:00 UTC


231141Z 2313/2322 08010KT 9999 FEW035 SCT230
No reported NOTAMs for that airfield.



MET'MAP, your aeronautical weather chart ! - Copyright ORBIFLY December 2007 - Disclaimer

ORBIFLY MET'MAP TEAM :

Programming & Development : Alexandra Zaïnal
Concept & Development : Baudouin d'Aumeries
Co-Development & Prog : Marc-Olivier Méhu
Technical & hardware support : Manuel Goepfert

Contact : metmap@orbifly.com




SOURCES & CREDITS :

   NOAA